Legend — WDF9316 — position and weather

sailwx.info

Track history (hours):
 
Tides and Currents Weather Stations Pressure Air Temp Water Temp Dewpoint Dewpoint Depression Visibility Wind Speed Wind Dir Waves Ship Positions

Legend

Owner: Crowley Maritime, Seattle, WA. More information available from US FCC via Universal Licensing System and Coast Guard Vessel Documentation Center.

Last reported at 2017-Aug-20 10:09 UTC. Time now 2017-Aug-21 14:05 UTC.
Position N 29°52' W 093°56'.

Length 212 m; draft 7.8 m.

Type: Towing. MMSI: 366709000.

Date/timePositionNaut miles runAvg speedWind from/ knotsBaromVisibWave heightAir tempDewpointWater temp
2017-Aug-20 10:09N 29°52' W 093°56'1 4.2
2017-Aug-20 09:52N 29°53' W 093°55'3 7.5
2017-Aug-20 09:30N 29°55' W 093°53'  
2017-Aug-15 12:19N 27°36' W 082°44'412.9
2017-Aug-15 12:00N 27°37' W 082°39'612.5
2017-Aug-15 11:30N 27°41' W 082°34'611.9
2017-Aug-15 11:00N 27°47' W 082°31'5 9.6
2017-Aug-15 10:30N 27°49' W 082°27'511.0
2017-Aug-15 10:00N 27°55' W 082°27'2 3.4
2017-Aug-15 09:30N 27°57' W 082°27'0 0.4
2017-Aug-15 09:00N 27°57' W 082°27'0 0.0
2017-Aug-15 08:30N 27°57' W 082°27'0 0.0
2017-Aug-15 08:00N 27°57' W 082°27'0 0.0
2017-Aug-15 07:24N 27°57' W 082°27'0 0.0
2017-Aug-15 06:57N 27°57' W 082°27'0 0.0
2017-Aug-15 06:30N 27°57' W 082°27'0 0.0
2017-Aug-15 06:00N 27°57' W 082°27'0 0.0
2017-Aug-15 05:30N 27°57' W 082°27'0 0.0
2017-Aug-15 05:00N 27°57' W 082°27'0 0.0
2017-Aug-15 04:30N 27°57' W 082°27'0 0.0
2017-Aug-15 04:00N 27°57' W 082°27'0 0.0
2017-Aug-15 03:30N 27°57' W 082°27'0 0.0
2017-Aug-15 03:00N 27°57' W 082°27'0 0.0
2017-Aug-15 02:30N 27°57' W 082°27'0 0.0
2017-Aug-15 02:00N 27°57' W 082°27'0 0.0
2017-Aug-15 01:30N 27°57' W 082°27'0 0.0
2017-Aug-15 01:00N 27°57' W 082°27'0 0.0
2017-Aug-15 00:30N 27°57' W 082°27'0 0.0
2017-Aug-15 00:00N 27°57' W 082°27'0 0.0
2017-Aug-14 23:30N 27°57' W 082°27'0 0.0
2017-Aug-14 23:00N 27°57' W 082°27'0 0.0
2017-Aug-14 22:30N 27°57' W 082°27'0 0.0
2017-Aug-14 22:00N 27°57' W 082°27'0 0.0
2017-Aug-14 21:30N 27°57' W 082°27'0 0.0
2017-Aug-14 21:00N 27°57' W 082°27'0 0.0
2017-Aug-14 20:30N 27°57' W 082°27'0 0.0
2017-Aug-14 20:00N 27°57' W 082°27'0 0.0
2017-Aug-14 19:30N 27°57' W 082°27'0 0.0
2017-Aug-14 19:00N 27°57' W 082°27'0 0.0
2017-Aug-14 18:30N 27°57' W 082°27'0 0.0
2017-Aug-14 18:00N 27°57' W 082°27'0 0.0
2017-Aug-14 17:30N 27°57' W 082°27'0 0.0
2017-Aug-14 17:00N 27°57' W 082°27'0 0.0
2017-Aug-14 16:30N 27°57' W 082°27'0 0.0
2017-Aug-14 16:00N 27°57' W 082°27'0 0.0
2017-Aug-14 15:30N 27°57' W 082°27'0 0.0
2017-Aug-14 15:00N 27°57' W 082°27'0 0.0
2017-Aug-14 14:30N 27°57' W 082°27'0 0.0
2017-Aug-14 14:00N 27°57' W 082°27'0 0.0
2017-Aug-14 13:30N 27°57' W 082°27'0 0.0
2017-Aug-14 13:00N 27°57' W 082°27'0 0.0
2017-Aug-14 12:30N 27°57' W 082°27'1 1.1
2017-Aug-14 12:00N 27°56' W 082°27'1 2.4
2017-Aug-14 11:30N 27°55' W 082°27'0 0.1
2017-Aug-14 10:58N 27°55' W 082°27'0 0.0
2017-Aug-14 10:28N 27°55' W 082°27'0 0.0
2017-Aug-14 09:58N 27°55' W 082°27'0 0.0
2017-Aug-14 09:28N 27°55' W 082°27'0 0.0
2017-Aug-14 08:58N 27°55' W 082°27'0 0.0
2017-Aug-14 08:28N 27°55' W 082°27'0 0.0
2017-Aug-14 07:58N 27°55' W 082°27'0 0.0
2017-Aug-14 07:28N 27°55' W 082°27'0 0.0
2017-Aug-14 06:58N 27°55' W 082°27'0 0.0
2017-Aug-14 06:28N 27°55' W 082°27'0 0.0
2017-Aug-14 05:58N 27°55' W 082°27'0 0.0
2017-Aug-14 05:28N 27°55' W 082°27'0 0.0
2017-Aug-14 04:58N 27°55' W 082°27'0 0.0
2017-Aug-14 04:28N 27°55' W 082°27'0 0.0
2017-Aug-14 03:58N 27°55' W 082°27'0 0.0
2017-Aug-14 03:28N 27°55' W 082°27'0 0.0
2017-Aug-14 02:58N 27°55' W 082°27'0 0.0
2017-Aug-14 02:28N 27°55' W 082°27'0 0.0
2017-Aug-14 01:58N 27°55' W 082°27'0 0.0
2017-Aug-14 01:28N 27°55' W 082°27'0 0.0
2017-Aug-14 00:58N 27°55' W 082°27'0 0.0
2017-Aug-14 00:28N 27°55' W 082°27'0 0.0
2017-Aug-13 23:58N 27°55' W 082°27'0 0.0
2017-Aug-13 23:28N 27°55' W 082°27'0 0.0
2017-Aug-13 22:58N 27°55' W 082°27'0 0.0
2017-Aug-13 22:28N 27°55' W 082°27'0 0.0
2017-Aug-13 21:58N 27°55' W 082°27'0 0.0
2017-Aug-13 21:28N 27°55' W 082°27'0 0.0
2017-Aug-13 20:58N 27°55' W 082°27'0 0.0
2017-Aug-13 20:28N 27°55' W 082°27'0 0.0
2017-Aug-13 19:55N 27°55' W 082°27'0 0.0
2017-Aug-13 19:28N 27°55' W 082°27'0 0.0
2017-Aug-13 18:58N 27°55' W 082°27'0 0.0
2017-Aug-13 18:28N 27°55' W 082°27'0 0.0
2017-Aug-13 17:58N 27°55' W 082°27'0 0.0
2017-Aug-13 17:28N 27°55' W 082°27'0 0.0
2017-Aug-13 16:58N 27°55' W 082°27'0 0.0
2017-Aug-13 16:28N 27°55' W 082°27'0 0.0
2017-Aug-13 15:58N 27°55' W 082°27'0 0.0
2017-Aug-13 15:28N 27°55' W 082°27'0 0.0
2017-Aug-13 15:00N 27°55' W 082°27'1 1.2
2017-Aug-13 14:30N 27°54' W 082°26'3 5.5
2017-Aug-13 14:00N 27°52' W 082°27'5 9.7
2017-Aug-13 13:30N 27°48' W 082°29'510.5
2017-Aug-13 13:00N 27°43' W 082°32'611.1
2017-Aug-13 12:30N 27°39' W 082°37'611.0
2017-Aug-13 12:00N 27°37' W 082°42'  
Track history (hours):
 
Tides and Currents Weather Stations Pressure Air Temp Water Temp Dewpoint Dewpoint Depression Visibility Wind Speed Wind Dir Waves Ship Positions

Legend

Owner: Crowley Maritime, Seattle, WA. More information available from US FCC via Universal Licensing System and Coast Guard Vessel Documentation Center.

Last reported at 2017-Aug-20 10:09 UTC. Time now 2017-Aug-21 14:05 UTC.
Position N 29°52' W 093°56'.

Length 212 m; draft 7.8 m.

Type: Towing. MMSI: 366709000.

Date/timePositionNaut miles runAvg speedWind from/ knotsBaromVisibWave heightAir tempDewpointWater temp
2017-Aug-20 10:09N 29°52' W 093°56'1 4.2
2017-Aug-20 09:52N 29°53' W 093°55'3 7.5
2017-Aug-20 09:30N 29°55' W 093°53'  
2017-Aug-15 12:19N 27°36' W 082°44'412.9
2017-Aug-15 12:00N 27°37' W 082°39'612.5
2017-Aug-15 11:30N 27°41' W 082°34'611.9
2017-Aug-15 11:00N 27°47' W 082°31'5 9.6
2017-Aug-15 10:30N 27°49' W 082°27'511.0
2017-Aug-15 10:00N 27°55' W 082°27'2 3.4
2017-Aug-15 09:30N 27°57' W 082°27'0 0.4
2017-Aug-15 09:00N 27°57' W 082°27'0 0.0
2017-Aug-15 08:30N 27°57' W 082°27'0 0.0
2017-Aug-15 08:00N 27°57' W 082°27'0 0.0
2017-Aug-15 07:24N 27°57' W 082°27'0 0.0
2017-Aug-15 06:57N 27°57' W 082°27'0 0.0
2017-Aug-15 06:30N 27°57' W 082°27'0 0.0
2017-Aug-15 06:00N 27°57' W 082°27'0 0.0
2017-Aug-15 05:30N 27°57' W 082°27'0 0.0
2017-Aug-15 05:00N 27°57' W 082°27'0 0.0
2017-Aug-15 04:30N 27°57' W 082°27'0 0.0
2017-Aug-15 04:00N 27°57' W 082°27'0 0.0
2017-Aug-15 03:30N 27°57' W 082°27'0 0.0
2017-Aug-15 03:00N 27°57' W 082°27'0 0.0
2017-Aug-15 02:30N 27°57' W 082°27'0 0.0
2017-Aug-15 02:00N 27°57' W 082°27'0 0.0
2017-Aug-15 01:30N 27°57' W 082°27'0 0.0
2017-Aug-15 01:00N 27°57' W 082°27'0 0.0
2017-Aug-15 00:30N 27°57' W 082°27'0 0.0
2017-Aug-15 00:00N 27°57' W 082°27'0 0.0
2017-Aug-14 23:30N 27°57' W 082°27'0 0.0
2017-Aug-14 23:00N 27°57' W 082°27'0 0.0
2017-Aug-14 22:30N 27°57' W 082°27'0 0.0
2017-Aug-14 22:00N 27°57' W 082°27'0 0.0
2017-Aug-14 21:30N 27°57' W 082°27'0 0.0
2017-Aug-14 21:00N 27°57' W 082°27'0 0.0
2017-Aug-14 20:30N 27°57' W 082°27'0 0.0
2017-Aug-14 20:00N 27°57' W 082°27'0 0.0
2017-Aug-14 19:30N 27°57' W 082°27'0 0.0
2017-Aug-14 19:00N 27°57' W 082°27'0 0.0
2017-Aug-14 18:30N 27°57' W 082°27'0 0.0
2017-Aug-14 18:00N 27°57' W 082°27'0 0.0
2017-Aug-14 17:30N 27°57' W 082°27'0 0.0
2017-Aug-14 17:00N 27°57' W 082°27'0 0.0
2017-Aug-14 16:30N 27°57' W 082°27'0 0.0
2017-Aug-14 16:00N 27°57' W 082°27'0 0.0
2017-Aug-14 15:30N 27°57' W 082°27'0 0.0
2017-Aug-14 15:00N 27°57' W 082°27'0 0.0
2017-Aug-14 14:30N 27°57' W 082°27'0 0.0
2017-Aug-14 14:00N 27°57' W 082°27'0 0.0
2017-Aug-14 13:30N 27°57' W 082°27'0 0.0
2017-Aug-14 13:00N 27°57' W 082°27'0 0.0
2017-Aug-14 12:30N 27°57' W 082°27'1 1.1
2017-Aug-14 12:00N 27°56' W 082°27'1 2.4
2017-Aug-14 11:30N 27°55' W 082°27'0 0.1
2017-Aug-14 10:58N 27°55' W 082°27'0 0.0
2017-Aug-14 10:28N 27°55' W 082°27'0 0.0
2017-Aug-14 09:58N 27°55' W 082°27'0 0.0
2017-Aug-14 09:28N 27°55' W 082°27'0 0.0
2017-Aug-14 08:58N 27°55' W 082°27'0 0.0
2017-Aug-14 08:28N 27°55' W 082°27'0 0.0
2017-Aug-14 07:58N 27°55' W 082°27'0 0.0
2017-Aug-14 07:28N 27°55' W 082°27'0 0.0
2017-Aug-14 06:58N 27°55' W 082°27'0 0.0
2017-Aug-14 06:28N 27°55' W 082°27'0 0.0
2017-Aug-14 05:58N 27°55' W 082°27'0 0.0
2017-Aug-14 05:28N 27°55' W 082°27'0 0.0
2017-Aug-14 04:58N 27°55' W 082°27'0 0.0
2017-Aug-14 04:28N 27°55' W 082°27'0 0.0
2017-Aug-14 03:58N 27°55' W 082°27'0 0.0
2017-Aug-14 03:28N 27°55' W 082°27'0 0.0
2017-Aug-14 02:58N 27°55' W 082°27'0 0.0
2017-Aug-14 02:28N 27°55' W 082°27'0 0.0
2017-Aug-14 01:58N 27°55' W 082°27'0 0.0
2017-Aug-14 01:28N 27°55' W 082°27'0 0.0
2017-Aug-14 00:58N 27°55' W 082°27'0 0.0
2017-Aug-14 00:28N 27°55' W 082°27'0 0.0
2017-Aug-13 23:58N 27°55' W 082°27'0 0.0
2017-Aug-13 23:28N 27°55' W 082°27'0 0.0
2017-Aug-13 22:58N 27°55' W 082°27'0 0.0
2017-Aug-13 22:28N 27°55' W 082°27'0 0.0
2017-Aug-13 21:58N 27°55' W 082°27'0 0.0
2017-Aug-13 21:28N 27°55' W 082°27'0 0.0
2017-Aug-13 20:58N 27°55' W 082°27'0 0.0
2017-Aug-13 20:28N 27°55' W 082°27'0 0.0
2017-Aug-13 19:55N 27°55' W 082°27'0 0.0
2017-Aug-13 19:28N 27°55' W 082°27'0 0.0
2017-Aug-13 18:58N 27°55' W 082°27'0 0.0
2017-Aug-13 18:28N 27°55' W 082°27'0 0.0
2017-Aug-13 17:58N 27°55' W 082°27'0 0.0
2017-Aug-13 17:28N 27°55' W 082°27'0 0.0
2017-Aug-13 16:58N 27°55' W 082°27'0 0.0
2017-Aug-13 16:28N 27°55' W 082°27'0 0.0
2017-Aug-13 15:58N 27°55' W 082°27'0 0.0
2017-Aug-13 15:28N 27°55' W 082°27'0 0.0
2017-Aug-13 15:00N 27°55' W 082°27'1 1.2
2017-Aug-13 14:30N 27°54' W 082°26'3 5.5
2017-Aug-13 14:00N 27°52' W 082°27'5 9.7
2017-Aug-13 13:30N 27°48' W 082°29'510.5
2017-Aug-13 13:00N 27°43' W 082°32'611.1
2017-Aug-13 12:30N 27°39' W 082°37'611.0
2017-Aug-13 12:00N 27°37' W 082°42'  

Dump ship's entire track history